LRTZ - TUZLA

Compiled: 21:31:36 on 19/01/2018

Latest METAR/SPECI Reports

METAR LRTZ 192100Z VRB03KT 9999 BKN200 02/M02 Q1012 BLU BLU=

Previous reports

METAR LRTZ 192000Z VRB03KT 9999 BKN200 02/M02 Q1012 BLU BLU=
METAR LRTZ 191900Z VRB03KT 9999 BKN200 03/M02 Q1012 BLU BLU=
METAR LRTZ 191800Z VRB03KT 9999 BKN200 03/M02 Q1012 BLU BLU=
METAR LRTZ 191700Z VRB03KT 9999 SCT200 02/M02 Q1012 BLU BLU=

Latest TAF report

TAF LRTZ 191700Z 1918/2018 VRB03KT 9999 SCT200 BECMG 2009/2011 30014KT BKN020 BKN080 BECMG 2016/2018 36010KT 6000 -SN BKN010 OVC060=

Valid WARNINGS

No valid warnings for LRTZ